Back to Top

Language: 

My Weather Underground Personal Weather Station Historical Data with Graphs...

Delerius Weather Station Historical Data
Daily Summary for November 28, 2017 Units:  Metric    English   Both
« Previous Day
Next Day »
Daily Weekly Monthly Yearly Custom
  High: Low: Average:
Temperature: 6.2 °C 2.7 °C 4.3 °C
Dew Point: 3.1 °C 0.4 °C 1.7 °C
Humidity: 91 % 73 % 84 %
Wind Speed: 20.9 km/h 6.4 km/h 11.6 km/h
Wind Gust: 35.4 km/h - -
Wind:- - NW
Pressure: 1010 hPa 1006.3 hPa -
Precipitation: 0 mm    
Historical Graphs
 
 
Tabular Data for November 28, 2017
Time Temperature Dew Point Pressure Wind Wind Speed Wind Gust Humidity Rainfall Rate (Hourly) solar Conditions
00:04 4 °C 2.5 °C 1006.3 hPa WNW 8 km/h 12.9 km/h 90 % 0 mm 0 W/m2
00:09 4 °C 2.5 °C 1006.3 hPa WNW 8 km/h 12.9 km/h 90 % 0 mm 0 W/m2
00:14 4 °C 2.5 °C 1006.3 hPa WNW 8 km/h 14.5 km/h 90 % 0 mm 0 W/m2
00:19 4.1 °C 2.6 °C 1006.3 hPa WNW 9.7 km/h 12.9 km/h 90 % 0 mm 0 W/m2
00:24 4.1 °C 2.6 °C 1006.3 hPa NW 8 km/h 12.9 km/h 90 % 0 mm 0 W/m2
00:29 4.1 °C 2.6 °C 1006.3 hPa NW 8 km/h 12.9 km/h 90 % 0 mm 0 W/m2
00:34 4.1 °C 2.6 °C 1006.3 hPa WNW 9.7 km/h 14.5 km/h 90 % 0 mm 0 W/m2
00:39 4.1 °C 2.6 °C 1006.3 hPa NW 9.7 km/h 12.9 km/h 90 % 0 mm 0 W/m2
00:44 4.1 °C 2.6 °C 1006.3 hPa WNW 8 km/h 12.9 km/h 90 % 0 mm 0 W/m2
00:49 4.1 °C 2.6 °C 1006.3 hPa WNW 8 km/h 11.3 km/h 90 % 0 mm 0 W/m2
00:54 4.1 °C 2.8 °C 1006.3 hPa NW 9.7 km/h 16.1 km/h 91 % 0 mm 0 W/m2
00:59 4.2 °C 2.9 °C 1006.3 hPa WNW 8 km/h 11.3 km/h 91 % 0 mm 0 W/m2
01:04 4.2 °C 2.9 °C 1006.7 hPa NW 9.7 km/h 12.9 km/h 91 % 0 mm 0 W/m2
01:09 4.3 °C 2.9 °C 1006.7 hPa NW 8 km/h 14.5 km/h 91 % 0 mm 0 W/m2
01:14 4.3 °C 2.9 °C 1006.7 hPa NW 9.7 km/h 16.1 km/h 91 % 0 mm 0 W/m2
01:19 4.4 °C 3.1 °C 1006.3 hPa WNW 11.3 km/h 14.5 km/h 91 % 0 mm 0 W/m2
01:24 4.4 °C 3.1 °C 1006.3 hPa WNW 12.9 km/h 19.3 km/h 91 % 0 mm 0 W/m2
01:29 4.4 °C 2.9 °C 1006.7 hPa NW 9.7 km/h 14.5 km/h 90 % 0 mm 0 W/m2
01:34 4.5 °C 3 °C 1006.3 hPa WNW 9.7 km/h 16.1 km/h 90 % 0 mm 0 W/m2
01:39 4.5 °C 3 °C 1006.7 hPa WNW 9.7 km/h 14.5 km/h 90 % 0 mm 0 W/m2
01:44 4.5 °C 3 °C 1006.3 hPa WNW 9.7 km/h 17.7 km/h 90 % 0 mm 0 W/m2
01:49 4.5 °C 3 °C 1006.3 hPa WNW 11.3 km/h 17.7 km/h 90 % 0 mm 0 W/m2
01:54 4.5 °C 2.8 °C 1006.3 hPa WNW 11.3 km/h 16.1 km/h 89 % 0 mm 0 W/m2
01:59 4.4 °C 2.7 °C 1006.3 hPa WNW 9.7 km/h 12.9 km/h 89 % 0 mm 0 W/m2
02:04 4.4 °C 2.7 °C 1006.3 hPa WNW 11.3 km/h 16.1 km/h 89 % 0 mm 0 W/m2
02:09 4.4 °C 2.7 °C 1006.3 hPa WNW 9.7 km/h 14.5 km/h 89 % 0 mm 0 W/m2
02:14 4.4 °C 2.7 °C 1006.7 hPa NW 9.7 km/h 14.5 km/h 89 % 0 mm 0 W/m2
02:19 4.4 °C 2.7 °C 1006.3 hPa NW 9.7 km/h 16.1 km/h 89 % 0 mm 0 W/m2
02:25 4.3 °C 2.7 °C 1006.7 hPa NW 11.3 km/h 16.1 km/h 89 % 0 mm 0 W/m2
02:30 4.3 °C 2.7 °C 1006.7 hPa WNW 11.3 km/h 14.5 km/h 89 % 0 mm 0 W/m2
02:35 4.3 °C 2.7 °C 1006.3 hPa NW 9.7 km/h 14.5 km/h 89 % 0 mm 0 W/m2
02:40 4.2 °C 2.4 °C 1006.3 hPa NW 11.3 km/h 16.1 km/h 88 % 0 mm 0 W/m2
02:45 4.1 °C 2.4 °C 1006.3 hPa NW 8 km/h 14.5 km/h 89 % 0 mm 0 W/m2
02:50 4 °C 2.3 °C 1006.3 hPa NW 9.7 km/h 14.5 km/h 89 % 0 mm 0 W/m2
02:55 3.9 °C 2.3 °C 1006.3 hPa NW 9.7 km/h 16.1 km/h 89 % 0 mm 0 W/m2
03:00 3.9 °C 2.3 °C 1006.3 hPa NW 9.7 km/h 14.5 km/h 89 % 0 mm 0 W/m2
03:05 3.8 °C 2.2 °C 1006.3 hPa NW 9.7 km/h 14.5 km/h 89 % 0 mm 0 W/m2
03:10 3.8 °C 2.2 °C 1006.3 hPa WNW 9.7 km/h 14.5 km/h 89 % 0 mm 0 W/m2
03:15 3.7 °C 2.1 °C 1006.7 hPa WNW 11.3 km/h 16.1 km/h 89 % 0 mm 0 W/m2
03:20 3.7 °C 2.1 °C 1006.7 hPa WNW 11.3 km/h 16.1 km/h 89 % 0 mm 0 W/m2
03:25 3.7 °C 2.1 °C 1006.7 hPa WNW 9.7 km/h 16.1 km/h 89 % 0 mm 0 W/m2
03:30 3.7 °C 2.1 °C 1006.7 hPa WNW 9.7 km/h 12.9 km/h 89 % 0 mm 0 W/m2
03:35 3.6 °C 1.9 °C 1006.7 hPa NW 6.4 km/h 11.3 km/h 89 % 0 mm 0 W/m2
03:40 3.6 °C 2.1 °C 1006.7 hPa WNW 11.3 km/h 16.1 km/h 90 % 0 mm 0 W/m2
03:45 3.5 °C 2 °C 1006.7 hPa WNW 11.3 km/h 16.1 km/h 90 % 0 mm 0 W/m2
03:50 3.5 °C 2 °C 1006.7 hPa WNW 11.3 km/h 16.1 km/h 90 % 0 mm 0 W/m2
03:55 3.4 °C 1.9 °C 1006.7 hPa NW 8 km/h 12.9 km/h 90 % 0 mm 0 W/m2
04:01 3.4 °C 1.9 °C 1006.7 hPa WNW 11.3 km/h 17.7 km/h 90 % 0 mm 0 W/m2
04:06 3.4 °C 1.9 °C 1006.7 hPa WNW 11.3 km/h 17.7 km/h 90 % 0 mm 0 W/m2
04:11 3.4 °C 1.9 °C 1006.7 hPa WNW 11.3 km/h 17.7 km/h 90 % 0 mm 0 W/m2
04:16 3.3 °C 1.8 °C 1006.7 hPa WNW 9.7 km/h 16.1 km/h 90 % 0 mm 0 W/m2
04:21 3.3 °C 1.8 °C 1007 hPa WNW 11.3 km/h 14.5 km/h 90 % 0 mm 0 W/m2
04:26 3.4 °C 2.1 °C 1006.7 hPa WNW 11.3 km/h 16.1 km/h 91 % 0 mm 0 W/m2
04:31 3.4 °C 1.9 °C 1006.7 hPa WNW 9.7 km/h 14.5 km/h 90 % 0 mm 0 W/m2
04:36 3.4 °C 2.1 °C 1006.7 hPa WNW 9.7 km/h 16.1 km/h 91 % 0 mm 0 W/m2
04:41 3.4 °C 1.9 °C 1006.7 hPa WNW 8 km/h 12.9 km/h 90 % 0 mm 0 W/m2
04:46 3.4 °C 1.9 °C 1007 hPa WNW 8 km/h 12.9 km/h 90 % 0 mm 0 W/m2
04:51 3.4 °C 1.9 °C 1007 hPa WNW 11.3 km/h 16.1 km/h 90 % 0 mm 0 W/m2
04:56 3.5 °C 2 °C 1007 hPa WNW 9.7 km/h 12.9 km/h 90 % 0 mm 0 W/m2
05:01 3.5 °C 1.8 °C 1007 hPa WNW 8 km/h 12.9 km/h 89 % 0 mm 0 W/m2
05:06 3.5 °C 1.8 °C 1007 hPa WNW 9.7 km/h 14.5 km/h 89 % 0 mm 0 W/m2
05:07 3.5 °C 1.8 °C 1007 hPa WNW 9.7 km/h 17.7 km/h 89 % 0 mm 0 W/m2
05:12 3.4 °C 1.6 °C 1007 hPa WNW 9.7 km/h 14.5 km/h 88 % 0 mm 0 W/m2
05:17 3.4 °C 1.6 °C 1007 hPa WNW 9.7 km/h 16.1 km/h 88 % 0 mm 0 W/m2
05:22 3.3 °C 1.5 °C 1007 hPa WNW 9.7 km/h 14.5 km/h 88 % 0 mm 0 W/m2
05:27 3.3 °C 1.3 °C 1007 hPa WNW 12.9 km/h 17.7 km/h 87 % 0 mm 0 W/m2
05:28 3.3 °C 1.3 °C 1007 hPa WNW 11.3 km/h 17.7 km/h 87 % 0 mm 0 W/m2
05:33 3.3 °C 1.2 °C 1007 hPa WNW 11.3 km/h 16.1 km/h 86 % 0 mm 0 W/m2
05:38 3.3 °C 1.2 °C 1007 hPa WNW 11.3 km/h 17.7 km/h 86 % 0 mm 0 W/m2
05:43 3.3 °C 1.2 °C 1007 hPa WNW 8 km/h 11.3 km/h 86 % 0 mm 0 W/m2
05:48 3.2 °C 0.9 °C 1007 hPa WNW 11.3 km/h 19.3 km/h 85 % 0 mm 0 W/m2
05:53 3.2 °C 0.9 °C 1007 hPa WNW 11.3 km/h 19.3 km/h 85 % 0 mm 0 W/m2
05:58 3.1 °C 0.8 °C 1007 hPa WNW 12.9 km/h 17.7 km/h 85 % 0 mm 0 W/m2
06:03 3.1 °C 0.8 °C 1007 hPa WNW 9.7 km/h 16.1 km/h 85 % 0 mm 0 W/m2
06:08 3 °C 0.7 °C 1007 hPa WNW 12.9 km/h 20.9 km/h 85 % 0 mm 0 W/m2
06:13 2.9 °C 0.6 °C 1007.3 hPa WNW 14.5 km/h 19.3 km/h 85 % 0 mm 0 W/m2
06:18 2.9 °C 0.6 °C 1007.3 hPa WNW 11.3 km/h 17.7 km/h 85 % 0 mm 0 W/m2
06:19 2.9 °C 0.6 °C 1007.3 hPa WNW 9.7 km/h 14.5 km/h 85 % 0 mm 0 W/m2
06:24 2.8 °C 0.5 °C 1007.3 hPa WNW 9.7 km/h 12.9 km/h 85 % 0 mm 0 W/m2
06:29 2.7 °C 0.4 °C 1007.3 hPa WNW 11.3 km/h 17.7 km/h 85 % 0 mm 0 W/m2
06:34 2.7 °C 0.4 °C 1007 hPa WNW 9.7 km/h 12.9 km/h 85 % 0 mm 0 W/m2
10:24 4.7 °C 0.8 °C 1008 hPa NW 14.5 km/h 17.7 km/h 76 % 0 mm 227 W/m2
10:29 4.8 °C 0.9 °C 1008 hPa WNW 14.5 km/h 22.5 km/h 76 % 0 mm 232 W/m2
10:34 4.9 °C 1 °C 1008.4 hPa WNW 14.5 km/h 20.9 km/h 76 % 0 mm 241 W/m2
10:39 4.9 °C 0.8 °C 1008.4 hPa WNW 16.1 km/h 25.7 km/h 75 % 0 mm 243 W/m2
10:44 5 °C 0.9 °C 1008.4 hPa NW 11.3 km/h 19.3 km/h 75 % 0 mm 244 W/m2
10:49 5.1 °C 1.1 °C 1008.4 hPa NW 16.1 km/h 22.5 km/h 75 % 0 mm 269 W/m2
10:54 5.1 °C 1.1 °C 1008.4 hPa WNW 12.9 km/h 20.9 km/h 75 % 0 mm 100 W/m2
10:59 5 °C 0.9 °C 1008.4 hPa NW 11.3 km/h 16.1 km/h 75 % 0 mm 283 W/m2
11:04 5.1 °C 1.1 °C 1008 hPa WNW 12.9 km/h 17.7 km/h 75 % 0 mm 265 W/m2
11:09 5.2 °C 1.1 °C 1008.4 hPa NW 14.5 km/h 20.9 km/h 75 % 0 mm 269 W/m2
11:14 5.3 °C 1.2 °C 1008 hPa NW 9.7 km/h 17.7 km/h 75 % 0 mm 269 W/m2
11:19 5.4 °C 1.1 °C 1008 hPa NW 9.7 km/h 14.5 km/h 74 % 0 mm 272 W/m2
11:24 5.5 °C 1.2 °C 1008 hPa NW 16.1 km/h 22.5 km/h 74 % 0 mm 272 W/m2
11:29 5.6 °C 1.3 °C 1008.4 hPa NW 12.9 km/h 19.3 km/h 74 % 0 mm 290 W/m2
11:35 5.6 °C 1.3 °C 1008.4 hPa NW 14.5 km/h 24.1 km/h 74 % 0 mm 318 W/m2
11:40 5.7 °C 1.2 °C 1008 hPa NW 14.5 km/h 29 km/h 73 % 0 mm 279 W/m2
11:45 5.7 °C 1.2 °C 1008 hPa NW 19.3 km/h 35.4 km/h 73 % 0 mm 283 W/m2
11:50 5.6 °C 1.3 °C 1007.7 hPa NW 16.1 km/h 25.7 km/h 74 % 0 mm 281 W/m2
11:55 5.7 °C 1.4 °C 1008 hPa NW 14.5 km/h 20.9 km/h 74 % 0 mm 232 W/m2
12:00 5.6 °C 1.3 °C 1008 hPa NW 20.9 km/h 32.2 km/h 74 % 0 mm 295 W/m2
12:05 5.7 °C 1.4 °C 1008 hPa NW 17.7 km/h 30.6 km/h 74 % 0 mm 162 W/m2
12:10 5.6 °C 1.3 °C 1007.7 hPa NW 19.3 km/h 32.2 km/h 74 % 0 mm 123 W/m2
12:15 5.7 °C 1.4 °C 1008 hPa NW 16.1 km/h 24.1 km/h 74 % 0 mm 316 W/m2
12:20 5.6 °C 1.5 °C 1008 hPa NW 12.9 km/h 20.9 km/h 75 % 0 mm 287 W/m2
12:25 5.8 °C 1.7 °C 1008 hPa NW 12.9 km/h 22.5 km/h 75 % 0 mm 311 W/m2
12:30 5.8 °C 1.7 °C 1008 hPa NW 9.7 km/h 20.9 km/h 75 % 0 mm 137 W/m2
12:35 5.7 °C 1.6 °C 1008 hPa NW 11.3 km/h 19.3 km/h 75 % 0 mm 113 W/m2
12:45 5.5 °C 1.6 °C 1008 hPa NW 11.3 km/h 22.5 km/h 76 % 0 mm 113 W/m2
12:50 5.3 °C 1.4 °C 1008 hPa NW 11.3 km/h 17.7 km/h 76 % 0 mm 65 W/m2
12:55 5.2 °C 1.5 °C 1008 hPa NW 12.9 km/h 20.9 km/h 77 % 0 mm 67 W/m2
13:00 5.2 °C 1.7 °C 1008 hPa WNW 11.3 km/h 19.3 km/h 78 % 0 mm 299 W/m2
13:05 5.3 °C 1.8 °C 1008 hPa NW 12.9 km/h 20.9 km/h 78 % 0 mm 132 W/m2
13:10 5.4 °C 1.7 °C 1008 hPa NW 12.9 km/h 20.9 km/h 77 % 0 mm 183 W/m2
13:15 5.6 °C 2.1 °C 1008 hPa NW 12.9 km/h 20.9 km/h 78 % 0 mm 185 W/m2
13:20 5.8 °C 2.1 °C 1008 hPa WNW 14.5 km/h 20.9 km/h 77 % 0 mm 190 W/m2
13:25 5.9 °C 2.3 °C 1008 hPa WNW 12.9 km/h 20.9 km/h 78 % 0 mm 290 W/m2
13:30 6.1 °C 2.6 °C 1008 hPa WNW 17.7 km/h 29 km/h 78 % 0 mm 216 W/m2
13:35 6.2 °C 2.4 °C 1008 hPa NW 11.3 km/h 20.9 km/h 77 % 0 mm 114 W/m2
13:41 6.1 °C 2.4 °C 1008 hPa NW 14.5 km/h 25.7 km/h 77 % 0 mm 100 W/m2
13:46 6.1 °C 2.6 °C 1008 hPa NW 12.9 km/h 20.9 km/h 78 % 0 mm 86 W/m2
13:56 5.9 °C 2.3 °C 1008 hPa NW 14.5 km/h 25.7 km/h 78 % 0 mm 107 W/m2
14:01 5.9 °C 2.6 °C 1008 hPa NW 14.5 km/h 25.7 km/h 79 % 0 mm 84 W/m2
14:06 5.8 °C 2.4 °C 1008 hPa WNW 16.1 km/h 24.1 km/h 79 % 0 mm 60 W/m2
14:11 5.8 °C 2.6 °C 1008 hPa NW 12.9 km/h 20.9 km/h 80 % 0 mm 81 W/m2
14:21 5.7 °C 2.5 °C 1008 hPa WNW 14.5 km/h 20.9 km/h 80 % 0 mm 125 W/m2
14:23 5.7 °C 2.5 °C 1008 hPa NW 12.9 km/h 24.1 km/h 80 % 0 mm 125 W/m2
14:33 5.7 °C 2.7 °C 1008 hPa NW 14.5 km/h 25.7 km/h 81 % 0 mm 49 W/m2
14:38 5.6 °C 2.6 °C 1008 hPa NW 12.9 km/h 19.3 km/h 81 % 0 mm 62 W/m2
14:43 5.6 °C 2.6 °C 1008 hPa NW 11.3 km/h 17.7 km/h 81 % 0 mm 104 W/m2
14:48 5.6 °C 2.6 °C 1008 hPa NW 9.7 km/h 19.3 km/h 81 % 0 mm 93 W/m2
14:53 5.7 °C 2.7 °C 1008 hPa NW 11.3 km/h 19.3 km/h 81 % 0 mm 47 W/m2
14:58 5.7 °C 2.7 °C 1008 hPa NW 11.3 km/h 19.3 km/h 81 % 0 mm 26 W/m2
14:59 5.7 °C 2.7 °C 1008 hPa NW 11.3 km/h 24.1 km/h 81 % 0 mm 23 W/m2
15:03 5.6 °C 2.4 °C 1008.4 hPa NW 11.3 km/h 19.3 km/h 80 % 0 mm 19 W/m2
15:08 5.6 °C 2.6 °C 1008.4 hPa NW 11.3 km/h 20.9 km/h 81 % 0 mm 12 W/m2
15:13 5.5 °C 2.5 °C 1008.4 hPa NW 12.9 km/h 20.9 km/h 81 % 0 mm 9 W/m2
15:18 5.4 °C 2.4 °C 1008.4 hPa NW 6.4 km/h 14.5 km/h 81 % 0 mm 5 W/m2
15:23 5.4 °C 2.4 °C 1008.4 hPa NW 14.5 km/h 20.9 km/h 81 % 0 mm 0 W/m2
15:28 5.3 °C 2.3 °C 1008.4 hPa NW 12.9 km/h 17.7 km/h 81 % 0 mm 5 W/m2
15:33 5.3 °C 2.3 °C 1008.4 hPa NW 11.3 km/h 16.1 km/h 81 % 0 mm 5 W/m2
15:34 5.3 °C 2.3 °C 1008.4 hPa WNW 11.3 km/h 16.1 km/h 81 % 0 mm 5 W/m2
15:39 5.3 °C 2.3 °C 1008.4 hPa NW 8 km/h 14.5 km/h 81 % 0 mm 5 W/m2
15:49 5.2 °C 2.2 °C 1008.7 hPa NW 11.3 km/h 20.9 km/h 81 % 0 mm 5 W/m2
15:57 5.2 °C 2.2 °C 1008.4 hPa NW 9.7 km/h 17.7 km/h 81 % 0 mm 0 W/m2
16:02 5.2 °C 2.2 °C 1008.4 hPa NW 12.9 km/h 22.5 km/h 81 % 0 mm 0 W/m2
16:07 5.2 °C 2.2 °C 1008.4 hPa NW 9.7 km/h 14.5 km/h 81 % 0 mm 0 W/m2
16:12 5.2 °C 2.2 °C 1008.4 hPa NW 11.3 km/h 22.5 km/h 81 % 0 mm 0 W/m2
16:22 5.1 °C 1.9 °C 1008.7 hPa NW 9.7 km/h 16.1 km/h 80 % 0 mm 0 W/m2
16:27 5 °C 1.8 °C 1008.7 hPa WNW 11.3 km/h 20.9 km/h 80 % 0 mm 0 W/m2
16:32 5 °C 1.8 °C 1008.7 hPa WNW 11.3 km/h 16.1 km/h 80 % 0 mm 0 W/m2
16:42 4.9 °C 1.9 °C 1008.7 hPa WNW 11.3 km/h 16.1 km/h 81 % 0 mm 0 W/m2
16:47 4.8 °C 1.7 °C 1008.7 hPa WNW 14.5 km/h 22.5 km/h 80 % 0 mm 0 W/m2
16:57 4.7 °C 1.6 °C 1008.7 hPa WNW 11.3 km/h 19.3 km/h 80 % 0 mm 0 W/m2
17:02 4.6 °C 1.6 °C 1009 hPa WNW 11.3 km/h 17.7 km/h 81 % 0 mm 0 W/m2
17:07 4.4 °C 1.4 °C 1009 hPa WNW 9.7 km/h 12.9 km/h 81 % 0 mm 0 W/m2
17:12 4.3 °C 1.3 °C 1009 hPa WNW 9.7 km/h 19.3 km/h 81 % 0 mm 0 W/m2
17:17 4.2 °C 1.4 °C 1008.7 hPa WNW 9.7 km/h 16.1 km/h 82 % 0 mm 0 W/m2
17:32 4.1 °C 1.3 °C 1009 hPa WNW 14.5 km/h 25.7 km/h 82 % 0 mm 0 W/m2
17:43 4.1 °C 1.3 °C 1008.7 hPa NW 11.3 km/h 22.5 km/h 82 % 0 mm 0 W/m2
18:01 3.8 °C 1 °C 1009 hPa NW 14.5 km/h 22.5 km/h 82 % 0 mm 0 W/m2
18:06 3.8 °C 1 °C 1009 hPa NW 16.1 km/h 22.5 km/h 82 % 0 mm 0 W/m2
18:16 3.7 °C 0.9 °C 1009 hPa NW 11.3 km/h 17.7 km/h 82 % 0 mm 0 W/m2
18:21 3.7 °C 0.9 °C 1009 hPa WNW 12.9 km/h 19.3 km/h 82 % 0 mm 0 W/m2
18:26 3.7 °C 0.9 °C 1009 hPa NW 14.5 km/h 29 km/h 82 % 0 mm 0 W/m2
18:31 3.7 °C 0.9 °C 1009 hPa WNW 14.5 km/h 22.5 km/h 82 % 0 mm 0 W/m2
18:36 3.6 °C 0.8 °C 1009 hPa WNW 12.9 km/h 19.3 km/h 82 % 0 mm 0 W/m2
18:46 3.6 °C 0.8 °C 1009 hPa NW 11.3 km/h 17.7 km/h 82 % 0 mm 0 W/m2
18:51 3.5 °C 0.7 °C 1009 hPa NW 12.9 km/h 20.9 km/h 82 % 0 mm 0 W/m2
18:56 3.5 °C 0.9 °C 1009.4 hPa NW 14.5 km/h 20.9 km/h 83 % 0 mm 0 W/m2
19:06 3.6 °C 0.8 °C 1009.4 hPa WNW 12.9 km/h 20.9 km/h 82 % 0 mm 0 W/m2
19:11 3.6 °C 0.8 °C 1009.4 hPa WNW 12.9 km/h 19.3 km/h 82 % 0 mm 0 W/m2
19:17 3.6 °C 0.8 °C 1009.4 hPa NW 11.3 km/h 22.5 km/h 82 % 0 mm 0 W/m2
19:22 3.6 °C 0.8 °C 1009.4 hPa WNW 16.1 km/h 22.5 km/h 82 % 0 mm 0 W/m2
19:33 3.5 °C 0.7 °C 1009 hPa WNW 12.9 km/h 20.9 km/h 82 % 0 mm 0 W/m2
19:38 3.4 °C 0.8 °C 1009 hPa WNW 9.7 km/h 20.9 km/h 83 % 0 mm 0 W/m2
19:43 3.3 °C 0.7 °C 1009 hPa WNW 14.5 km/h 24.1 km/h 83 % 0 mm 0 W/m2
19:58 3.2 °C 0.6 °C 1009 hPa WNW 11.3 km/h 22.5 km/h 83 % 0 mm 0 W/m2
20:03 3.1 °C 0.5 °C 1009.4 hPa NW 12.9 km/h 19.3 km/h 83 % 0 mm 0 W/m2
20:13 3.1 °C 0.7 °C 1009.4 hPa NW 11.3 km/h 16.1 km/h 84 % 0 mm 0 W/m2
20:19 3.1 °C 0.7 °C 1009.4 hPa NW 11.3 km/h 20.9 km/h 84 % 0 mm 0 W/m2
20:24 3.1 °C 0.7 °C 1009.7 hPa NW 12.9 km/h 19.3 km/h 84 % 0 mm 0 W/m2
20:54 3.4 °C 0.9 °C 1009.4 hPa NW 12.9 km/h 17.7 km/h 84 % 0 mm 0 W/m2
20:59 3.5 °C 1.1 °C 1009.4 hPa NW 11.3 km/h 19.3 km/h 84 % 0 mm 0 W/m2
21:04 3.4 °C 0.9 °C 1009.4 hPa NW 9.7 km/h 19.3 km/h 84 % 0 mm 0 W/m2
21:09 3.4 °C 0.9 °C 1009.4 hPa NW 12.9 km/h 19.3 km/h 84 % 0 mm 0 W/m2
21:14 3.4 °C 0.9 °C 1009.4 hPa NW 12.9 km/h 17.7 km/h 84 % 0 mm 0 W/m2
21:19 3.4 °C 0.9 °C 1009.4 hPa NW 11.3 km/h 20.9 km/h 84 % 0 mm 0 W/m2
21:24 3.4 °C 0.9 °C 1009.4 hPa NW 12.9 km/h 17.7 km/h 84 % 0 mm 0 W/m2
21:29 3.4 °C 0.9 °C 1009.7 hPa NW 14.5 km/h 20.9 km/h 84 % 0 mm 0 W/m2
21:39 3.6 °C 1.2 °C 1009.4 hPa NW 11.3 km/h 17.7 km/h 84 % 0 mm 0 W/m2
21:44 3.7 °C 1.2 °C 1009.4 hPa WNW 14.5 km/h 24.1 km/h 84 % 0 mm 0 W/m2
21:49 3.7 °C 1.2 °C 1009.4 hPa NW 12.9 km/h 22.5 km/h 84 % 0 mm 0 W/m2
21:59 3.7 °C 1.2 °C 1009.7 hPa NW 8 km/h 17.7 km/h 84 % 0 mm 0 W/m2
22:04 3.8 °C 1.3 °C 1009.7 hPa NW 9.7 km/h 16.1 km/h 84 % 0 mm 0 W/m2
22:09 3.8 °C 1.3 °C 1009.7 hPa NW 8 km/h 12.9 km/h 84 % 0 mm 0 W/m2
22:14 3.8 °C 1.3 °C 1009.7 hPa NW 6.4 km/h 11.3 km/h 84 % 0 mm 0 W/m2
22:24 3.8 °C 1.3 °C 1009.7 hPa NW 9.7 km/h 12.9 km/h 84 % 0 mm 0 W/m2
22:29 3.7 °C 1.4 °C 1009.7 hPa WNW 8 km/h 14.5 km/h 85 % 0 mm 0 W/m2
22:59 3.3 °C 1.2 °C 1009.7 hPa WNW 11.3 km/h 17.7 km/h 86 % 0 mm 0 W/m2
23:04 3.3 °C 1.2 °C 1009.7 hPa WNW 9.7 km/h 14.5 km/h 86 % 0 mm 0 W/m2
23:09 3.2 °C 1.1 °C 1009.7 hPa NW 12.9 km/h 20.9 km/h 86 % 0 mm 0 W/m2
23:14 3.2 °C 1.1 °C 1010 hPa WNW 9.7 km/h 16.1 km/h 86 % 0 mm 0 W/m2
23:34 3 °C 0.9 °C 1010 hPa NW 9.7 km/h 16.1 km/h 86 % 0 mm 0 W/m2
23:39 2.9 °C 0.8 °C 1010 hPa NW 11.3 km/h 17.7 km/h 86 % 0 mm 0 W/m2
23:49 2.9 °C 0.8 °C 1010 hPa WNW 14.5 km/h 22.5 km/h 86 % 0 mm 0 W/m2
23:54 3 °C 0.9 °C 1010 hPa NW 11.3 km/h 20.9 km/h 86 % 0 mm 0 W/m2
Delerius-Weather
Compliments of Weather Underground - 1.75 mb

Data updates at regular intervals.